sensor_id;sensor_type;location;lat;lon;timestamp;temperature;humidity
24103;DHT22;12278;53.058;9.028;2023-06-22T00:03:31;18.60;99.90
24103;DHT22;12278;53.058;9.028;2023-06-22T00:07:32;18.50;99.90
24103;DHT22;12278;53.058;9.028;2023-06-22T00:11:36;18.50;99.90
24103;DHT22;12278;53.058;9.028;2023-06-22T00:15:38;18.40;99.90
24103;DHT22;12278;53.058;9.028;2023-06-22T00:19:39;18.50;99.90
24103;DHT22;12278;53.058;9.028;2023-06-22T00:23:40;18.40;99.90
24103;DHT22;12278;53.058;9.028;2023-06-22T00:27:41;18.30;99.90
24103;DHT22;12278;53.058;9.028;2023-06-22T00:31:42;18.40;99.90
24103;DHT22;12278;53.058;9.028;2023-06-22T00:35:43;18.40;99.90
24103;DHT22;12278;53.058;9.028;2023-06-22T00:39:44;18.30;99.90
24103;DHT22;12278;53.058;9.028;2023-06-22T00:43:45;18.30;99.90
24103;DHT22;12278;53.058;9.028;2023-06-22T00:47:45;18.20;99.90
24103;DHT22;12278;53.058;9.028;2023-06-22T00:51:46;18.10;99.90
24103;DHT22;12278;53.058;9.028;2023-06-22T00:55:48;18.10;99.90
24103;DHT22;12278;53.058;9.028;2023-06-22T00:59:51;18.00;99.90
24103;DHT22;12278;53.058;9.028;2023-06-22T01:03:52;18.10;99.90
24103;DHT22;12278;53.058;9.028;2023-06-22T01:12:06;18.00;99.90
24103;DHT22;12278;53.058;9.028;2023-06-22T01:16:35;18.00;99.90
24103;DHT22;12278;53.058;9.028;2023-06-22T01:20:37;17.90;99.90
24103;DHT22;12278;53.058;9.028;2023-06-22T01:28:54;17.70;99.90
24103;DHT22;12278;53.058;9.028;2023-06-22T01:32:57;17.70;99.90
24103;DHT22;12278;53.058;9.028;2023-06-22T01:36:59;17.60;99.90
24103;DHT22;12278;53.058;9.028;2023-06-22T01:41:01;17.50;99.90
24103;DHT22;12278;53.058;9.028;2023-06-22T01:45:03;17.40;99.90
24103;DHT22;12278;53.058;9.028;2023-06-22T01:49:04;17.50;99.90
24103;DHT22;12278;53.058;9.028;2023-06-22T01:53:05;17.50;99.90
24103;DHT22;12278;53.058;9.028;2023-06-22T01:57:07;17.40;99.90
24103;DHT22;12278;53.058;9.028;2023-06-22T02:01:11;17.30;99.90
24103;DHT22;12278;53.058;9.028;2023-06-22T02:05:14;17.20;99.90
24103;DHT22;12278;53.058;9.028;2023-06-22T02:09:17;17.10;99.90
24103;DHT22;12278;53.058;9.028;2023-06-22T02:13:20;17.10;99.90
24103;DHT22;12278;53.058;9.028;2023-06-22T02:17:22;17.00;99.90
24103;DHT22;12278;53.058;9.028;2023-06-22T02:21:23;17.10;99.90
24103;DHT22;12278;53.058;9.028;2023-06-22T02:25:24;17.10;99.90
24103;DHT22;12278;53.058;9.028;2023-06-22T02:29:25;17.00;99.90
24103;DHT22;12278;53.058;9.028;2023-06-22T02:33:27;17.00;99.90
24103;DHT22;12278;53.058;9.028;2023-06-22T02:37:27;17.00;99.90
24103;DHT22;12278;53.058;9.028;2023-06-22T02:41:30;16.90;99.90
24103;DHT22;12278;53.058;9.028;2023-06-22T02:45:30;16.90;99.90
24103;DHT22;12278;53.058;9.028;2023-06-22T02:49:31;16.80;99.90
24103;DHT22;12278;53.058;9.028;2023-06-22T02:53:32;16.80;99.90
24103;DHT22;12278;53.058;9.028;2023-06-22T02:57:32;16.80;99.90
24103;DHT22;12278;53.058;9.028;2023-06-22T03:01:33;16.80;99.90
24103;DHT22;12278;53.058;9.028;2023-06-22T03:05:44;16.80;99.90
24103;DHT22;12278;53.058;9.028;2023-06-22T03:09:44;16.80;99.90
24103;DHT22;12278;53.058;9.028;2023-06-22T03:13:45;16.80;99.90
24103;DHT22;12278;53.058;9.028;2023-06-22T03:17:46;16.70;99.90
24103;DHT22;12278;53.058;9.028;2023-06-22T03:21:47;16.70;99.90
24103;DHT22;12278;53.058;9.028;2023-06-22T03:25:48;16.70;99.90
24103;DHT22;12278;53.058;9.028;2023-06-22T03:29:48;16.70;99.90
24103;DHT22;12278;53.058;9.028;2023-06-22T03:33:49;16.70;99.90
24103;DHT22;12278;53.058;9.028;2023-06-22T03:37:50;16.80;99.90
24103;DHT22;12278;53.058;9.028;2023-06-22T03:41:51;16.80;99.90
24103;DHT22;12278;53.058;9.028;2023-06-22T03:45:51;16.90;99.90
24103;DHT22;12278;53.058;9.028;2023-06-22T03:49:52;16.90;99.90
24103;DHT22;12278;53.058;9.028;2023-06-22T03:53:55;16.90;99.90
24103;DHT22;12278;53.058;9.028;2023-06-22T03:57:56;16.90;99.90
24103;DHT22;12278;53.058;9.028;2023-06-22T04:01:57;16.90;99.90
24103;DHT22;12278;53.058;9.028;2023-06-22T04:05:58;16.90;99.90
24103;DHT22;12278;53.058;9.028;2023-06-22T04:09:59;17.10;99.90
24103;DHT22;12278;53.058;9.028;2023-06-22T04:13:59;17.20;99.90
24103;DHT22;12278;53.058;9.028;2023-06-22T04:18:00;17.20;99.90
24103;DHT22;12278;53.058;9.028;2023-06-22T04:22:01;17.30;99.90
24103;DHT22;12278;53.058;9.028;2023-06-22T04:26:03;17.30;99.90
24103;DHT22;12278;53.058;9.028;2023-06-22T04:30:04;17.50;99.90
24103;DHT22;12278;53.058;9.028;2023-06-22T04:34:06;17.50;99.90
24103;DHT22;12278;53.058;9.028;2023-06-22T04:38:12;17.50;99.90
24103;DHT22;12278;53.058;9.028;2023-06-22T04:42:15;17.50;99.90
24103;DHT22;12278;53.058;9.028;2023-06-22T04:46:16;17.60;99.90
24103;DHT22;12278;53.058;9.028;2023-06-22T04:50:17;17.50;99.90
24103;DHT22;12278;53.058;9.028;2023-06-22T04:54:18;17.60;99.90
24103;DHT22;12278;53.058;9.028;2023-06-22T04:58:18;17.60;99.90
24103;DHT22;12278;53.058;9.028;2023-06-22T05:02:20;17.70;99.90
24103;DHT22;12278;53.058;9.028;2023-06-22T05:06:22;17.80;99.90
24103;DHT22;12278;53.058;9.028;2023-06-22T05:10:25;18.00;99.90
24103;DHT22;12278;53.058;9.028;2023-06-22T05:14:26;18.10;99.90
24103;DHT22;12278;53.058;9.028;2023-06-22T05:18:28;18.10;99.90
24103;DHT22;12278;53.058;9.028;2023-06-22T05:22:29;18.20;99.90
24103;DHT22;12278;53.058;9.028;2023-06-22T05:26:31;18.30;99.90
24103;DHT22;12278;53.058;9.028;2023-06-22T05:30:32;18.40;99.90
24103;DHT22;12278;53.058;9.028;2023-06-22T05:34:33;18.50;99.90
24103;DHT22;12278;53.058;9.028;2023-06-22T05:38:33;18.60;99.90
24103;DHT22;12278;53.058;9.028;2023-06-22T05:42:34;18.80;99.90
24103;DHT22;12278;53.058;9.028;2023-06-22T05:46:35;19.00;99.90
24103;DHT22;12278;53.058;9.028;2023-06-22T05:50:36;19.10;99.90
24103;DHT22;12278;53.058;9.028;2023-06-22T05:54:40;19.30;99.90
24103;DHT22;12278;53.058;9.028;2023-06-22T05:58:42;19.30;99.90
24103;DHT22;12278;53.058;9.028;2023-06-22T06:02:42;19.50;99.90
24103;DHT22;12278;53.058;9.028;2023-06-22T06:06:44;19.60;99.90
24103;DHT22;12278;53.058;9.028;2023-06-22T06:10:44;19.80;99.90
24103;DHT22;12278;53.058;9.028;2023-06-22T06:14:45;20.20;99.90
24103;DHT22;12278;53.058;9.028;2023-06-22T06:18:46;20.50;99.90
24103;DHT22;12278;53.058;9.028;2023-06-22T06:22:47;20.90;99.90
24103;DHT22;12278;53.058;9.028;2023-06-22T06:26:50;21.00;99.90
24103;DHT22;12278;53.058;9.028;2023-06-22T06:30:50;21.10;99.90
24103;DHT22;12278;53.058;9.028;2023-06-22T06:34:52;21.10;99.90
24103;DHT22;12278;53.058;9.028;2023-06-22T06:38:52;21.00;99.90
24103;DHT22;12278;53.058;9.028;2023-06-22T06:42:53;21.00;99.90
24103;DHT22;12278;53.058;9.028;2023-06-22T06:46:54;21.20;99.90
24103;DHT22;12278;53.058;9.028;2023-06-22T06:50:54;21.30;99.90
24103;DHT22;12278;53.058;9.028;2023-06-22T06:54:55;21.30;99.90
24103;DHT22;12278;53.058;9.028;2023-06-22T06:58:56;21.40;99.90
24103;DHT22;12278;53.058;9.028;2023-06-22T07:02:56;21.90;99.90
24103;DHT22;12278;53.058;9.028;2023-06-22T07:07:00;22.10;99.90
24103;DHT22;12278;53.058;9.028;2023-06-22T07:11:01;22.50;99.90
24103;DHT22;12278;53.058;9.028;2023-06-22T07:15:04;22.70;99.90
24103;DHT22;12278;53.058;9.028;2023-06-22T07:19:05;23.20;99.90
24103;DHT22;12278;53.058;9.028;2023-06-22T07:23:06;23.50;99.90
24103;DHT22;12278;53.058;9.028;2023-06-22T07:27:06;23.80;99.90
24103;DHT22;12278;53.058;9.028;2023-06-22T07:31:07;24.10;99.90
24103;DHT22;12278;53.058;9.028;2023-06-22T07:35:08;24.00;99.90
24103;DHT22;12278;53.058;9.028;2023-06-22T07:39:09;24.30;99.90
24103;DHT22;12278;53.058;9.028;2023-06-22T07:43:09;24.30;99.90
24103;DHT22;12278;53.058;9.028;2023-06-22T07:47:10;24.50;99.90
24103;DHT22;12278;53.058;9.028;2023-06-22T07:51:11;24.50;99.90
24103;DHT22;12278;53.058;9.028;2023-06-22T07:55:15;24.70;99.90
24103;DHT22;12278;53.058;9.028;2023-06-22T07:59:15;24.90;99.90
24103;DHT22;12278;53.058;9.028;2023-06-22T08:03:16;25.30;99.90
24103;DHT22;12278;53.058;9.028;2023-06-22T08:07:17;25.60;99.90
24103;DHT22;12278;53.058;9.028;2023-06-22T08:11:20;25.70;99.90
24103;DHT22;12278;53.058;9.028;2023-06-22T08:15:22;25.70;99.90
24103;DHT22;12278;53.058;9.028;2023-06-22T08:19:23;25.60;99.90
24103;DHT22;12278;53.058;9.028;2023-06-22T08:23:24;25.90;99.90
24103;DHT22;12278;53.058;9.028;2023-06-22T08:27:24;25.90;99.90
24103;DHT22;12278;53.058;9.028;2023-06-22T08:31:28;25.90;99.90
24103;DHT22;12278;53.058;9.028;2023-06-22T08:35:30;26.30;99.90
24103;DHT22;12278;53.058;9.028;2023-06-22T08:39:30;26.40;99.90
24103;DHT22;12278;53.058;9.028;2023-06-22T08:43:31;26.50;99.90
24103;DHT22;12278;53.058;9.028;2023-06-22T08:47:32;26.70;99.90
24103;DHT22;12278;53.058;9.028;2023-06-22T08:51:33;26.00;99.90
24103;DHT22;12278;53.058;9.028;2023-06-22T08:55:39;26.60;99.90
24103;DHT22;12278;53.058;9.028;2023-06-22T08:59:39;26.70;99.90
24103;DHT22;12278;53.058;9.028;2023-06-22T09:03:44;26.20;99.90
24103;DHT22;12278;53.058;9.028;2023-06-22T09:07:55;25.60;99.90
24103;DHT22;12278;53.058;9.028;2023-06-22T09:11:56;25.50;99.90
24103;DHT22;12278;53.058;9.028;2023-06-22T09:15:57;26.20;99.90
24103;DHT22;12278;53.058;9.028;2023-06-22T09:19:58;26.40;99.90
24103;DHT22;12278;53.058;9.028;2023-06-22T09:23:58;26.50;99.90
24103;DHT22;12278;53.058;9.028;2023-06-22T09:27:59;27.10;99.90
24103;DHT22;12278;53.058;9.028;2023-06-22T09:32:06;27.50;99.90
24103;DHT22;12278;53.058;9.028;2023-06-22T09:36:07;27.90;99.90
24103;DHT22;12278;53.058;9.028;2023-06-22T09:40:08;28.10;99.90
24103;DHT22;12278;53.058;9.028;2023-06-22T09:44:11;28.30;99.90
24103;DHT22;12278;53.058;9.028;2023-06-22T09:48:11;28.20;99.90
24103;DHT22;12278;53.058;9.028;2023-06-22T09:52:12;28.30;99.90
24103;DHT22;12278;53.058;9.028;2023-06-22T09:56:13;28.40;99.90
24103;DHT22;12278;53.058;9.028;2023-06-22T10:00:16;28.60;99.90
24103;DHT22;12278;53.058;9.028;2023-06-22T10:04:17;28.90;99.90
24103;DHT22;12278;53.058;9.028;2023-06-22T10:08:18;28.80;99.70
24103;DHT22;12278;53.058;9.028;2023-06-22T10:12:19;28.80;99.90
24103;DHT22;12278;53.058;9.028;2023-06-22T10:16:19;29.10;99.90
24103;DHT22;12278;53.058;9.028;2023-06-22T10:20:22;28.70;99.90
24103;DHT22;12278;53.058;9.028;2023-06-22T10:24:23;28.70;99.90
24103;DHT22;12278;53.058;9.028;2023-06-22T10:28:24;28.30;99.90
24103;DHT22;12278;53.058;9.028;2023-06-22T10:32:25;28.20;99.90
24103;DHT22;12278;53.058;9.028;2023-06-22T10:36:25;28.00;99.90
24103;DHT22;12278;53.058;9.028;2023-06-22T10:40:27;28.30;99.90
24103;DHT22;12278;53.058;9.028;2023-06-22T10:44:28;28.20;99.90
24103;DHT22;12278;53.058;9.028;2023-06-22T10:48:29;28.40;99.90
24103;DHT22;12278;53.058;9.028;2023-06-22T10:52:29;28.20;99.90
24103;DHT22;12278;53.058;9.028;2023-06-22T10:56:34;28.00;99.90
24103;DHT22;12278;53.058;9.028;2023-06-22T11:00:35;27.80;99.90
24103;DHT22;12278;53.058;9.028;2023-06-22T11:04:35;27.70;99.90
24103;DHT22;12278;53.058;9.028;2023-06-22T11:08:36;27.50;99.90
24103;DHT22;12278;53.058;9.028;2023-06-22T11:12:41;27.30;99.90
24103;DHT22;12278;53.058;9.028;2023-06-22T11:16:43;27.20;99.90
24103;DHT22;12278;53.058;9.028;2023-06-22T11:20:43;27.10;99.90
24103;DHT22;12278;53.058;9.028;2023-06-22T11:24:44;27.20;99.90
24103;DHT22;12278;53.058;9.028;2023-06-22T11:28:45;27.60;99.90
24103;DHT22;12278;53.058;9.028;2023-06-22T11:32:46;27.70;99.90
24103;DHT22;12278;53.058;9.028;2023-06-22T11:36:47;27.70;99.90
24103;DHT22;12278;53.058;9.028;2023-06-22T11:40:48;27.80;99.90
24103;DHT22;12278;53.058;9.028;2023-06-22T11:44:49;27.80;99.90
24103;DHT22;12278;53.058;9.028;2023-06-22T11:48:50;28.00;99.90
24103;DHT22;12278;53.058;9.028;2023-06-22T11:52:50;28.90;99.90
24103;DHT22;12278;53.058;9.028;2023-06-22T11:56:53;29.60;99.90
24103;DHT22;12278;53.058;9.028;2023-06-22T12:00:55;29.70;99.90
24103;DHT22;12278;53.058;9.028;2023-06-22T12:04:55;29.70;99.30
24103;DHT22;12278;53.058;9.028;2023-06-22T12:08:58;29.90;99.90
24103;DHT22;12278;53.058;9.028;2023-06-22T12:12:59;29.80;98.40
24103;DHT22;12278;53.058;9.028;2023-06-22T12:17:00;29.20;97.60
24103;DHT22;12278;53.058;9.028;2023-06-22T12:21:01;28.70;97.60
24103;DHT22;12278;53.058;9.028;2023-06-22T12:25:03;28.30;99.70
24103;DHT22;12278;53.058;9.028;2023-06-22T12:29:04;28.20;99.70
24103;DHT22;12278;53.058;9.028;2023-06-22T12:33:05;27.90;99.90
24103;DHT22;12278;53.058;9.028;2023-06-22T12:37:05;27.70;99.90
24103;DHT22;12278;53.058;9.028;2023-06-22T12:41:07;27.70;99.90
24103;DHT22;12278;53.058;9.028;2023-06-22T12:45:08;27.50;99.90
24103;DHT22;12278;53.058;9.028;2023-06-22T12:49:10;27.40;99.90
24103;DHT22;12278;53.058;9.028;2023-06-22T12:53:10;27.50;99.90
24103;DHT22;12278;53.058;9.028;2023-06-22T12:57:16;27.40;99.90
24103;DHT22;12278;53.058;9.028;2023-06-22T13:01:18;27.00;99.90
24103;DHT22;12278;53.058;9.028;2023-06-22T13:05:19;26.90;99.90
24103;DHT22;12278;53.058;9.028;2023-06-22T13:09:19;27.10;99.90
24103;DHT22;12278;53.058;9.028;2023-06-22T13:13:20;27.20;99.90
24103;DHT22;12278;53.058;9.028;2023-06-22T13:17:21;27.50;99.90
24103;DHT22;12278;53.058;9.028;2023-06-22T13:21:22;27.60;99.90
24103;DHT22;12278;53.058;9.028;2023-06-22T13:25:23;27.60;99.90
24103;DHT22;12278;53.058;9.028;2023-06-22T13:29:26;27.50;99.90
24103;DHT22;12278;53.058;9.028;2023-06-22T13:33:27;27.30;99.90
24103;DHT22;12278;53.058;9.028;2023-06-22T13:37:28;27.10;99.90
24103;DHT22;12278;53.058;9.028;2023-06-22T13:41:28;26.90;99.90
24103;DHT22;12278;53.058;9.028;2023-06-22T13:45:29;26.90;99.90
24103;DHT22;12278;53.058;9.028;2023-06-22T13:49:30;26.90;99.90
24103;DHT22;12278;53.058;9.028;2023-06-22T13:53:31;26.70;99.90
24103;DHT22;12278;53.058;9.028;2023-06-22T13:57:31;26.60;99.90
24103;DHT22;12278;53.058;9.028;2023-06-22T14:01:32;26.50;99.90
24103;DHT22;12278;53.058;9.028;2023-06-22T14:05:33;26.50;99.90
24103;DHT22;12278;53.058;9.028;2023-06-22T14:09:33;26.40;99.90
24103;DHT22;12278;53.058;9.028;2023-06-22T14:13:34;26.40;99.90
24103;DHT22;12278;53.058;9.028;2023-06-22T14:17:36;26.30;99.90
24103;DHT22;12278;53.058;9.028;2023-06-22T14:21:36;26.10;99.90
24103;DHT22;12278;53.058;9.028;2023-06-22T14:25:37;26.00;99.90
24103;DHT22;12278;53.058;9.028;2023-06-22T14:29:38;26.00;99.90
24103;DHT22;12278;53.058;9.028;2023-06-22T14:33:40;26.00;99.90
24103;DHT22;12278;53.058;9.028;2023-06-22T14:37:40;26.00;99.90
24103;DHT22;12278;53.058;9.028;2023-06-22T14:41:41;25.80;99.90
24103;DHT22;12278;53.058;9.028;2023-06-22T14:45:42;25.80;99.90
24103;DHT22;12278;53.058;9.028;2023-06-22T14:49:42;25.80;99.90
24103;DHT22;12278;53.058;9.028;2023-06-22T14:53:46;25.70;99.90
24103;DHT22;12278;53.058;9.028;2023-06-22T14:57:47;25.50;99.90
24103;DHT22;12278;53.058;9.028;2023-06-22T15:01:48;25.40;99.90
24103;DHT22;12278;53.058;9.028;2023-06-22T15:05:48;25.30;99.90
24103;DHT22;12278;53.058;9.028;2023-06-22T15:09:49;25.20;99.90
24103;DHT22;12278;53.058;9.028;2023-06-22T15:13:52;25.10;99.90
24103;DHT22;12278;53.058;9.028;2023-06-22T15:17:52;25.00;99.90
24103;DHT22;12278;53.058;9.028;2023-06-22T15:21:53;24.90;99.90
24103;DHT22;12278;53.058;9.028;2023-06-22T15:25:54;25.00;99.90
24103;DHT22;12278;53.058;9.028;2023-06-22T15:29:55;24.80;99.90
24103;DHT22;12278;53.058;9.028;2023-06-22T15:33:56;24.60;99.90
24103;DHT22;12278;53.058;9.028;2023-06-22T15:37:57;24.50;99.90
24103;DHT22;12278;53.058;9.028;2023-06-22T15:41:57;24.30;99.90
24103;DHT22;12278;53.058;9.028;2023-06-22T15:45:58;24.20;99.90
24103;DHT22;12278;53.058;9.028;2023-06-22T15:49:59;23.90;99.90
24103;DHT22;12278;53.058;9.028;2023-06-22T15:53:59;23.70;99.90
24103;DHT22;12278;53.058;9.028;2023-06-22T15:58:00;23.50;99.90
24103;DHT22;12278;53.058;9.028;2023-06-22T16:02:01;23.20;99.90
24103;DHT22;12278;53.058;9.028;2023-06-22T16:06:01;23.00;99.90
24103;DHT22;12278;53.058;9.028;2023-06-22T16:10:02;22.90;99.90
24103;DHT22;12278;53.058;9.028;2023-06-22T16:14:03;22.70;99.90
24103;DHT22;12278;53.058;9.028;2023-06-22T16:18:04;22.70;99.90
24103;DHT22;12278;53.058;9.028;2023-06-22T16:22:05;22.50;99.90
24103;DHT22;12278;53.058;9.028;2023-06-22T16:26:22;22.30;99.90
24103;DHT22;12278;53.058;9.028;2023-06-22T16:30:24;22.30;99.90
24103;DHT22;12278;53.058;9.028;2023-06-22T16:34:25;22.30;99.90
24103;DHT22;12278;53.058;9.028;2023-06-22T16:38:26;22.40;99.90
24103;DHT22;12278;53.058;9.028;2023-06-22T16:42:27;22.60;99.90
24103;DHT22;12278;53.058;9.028;2023-06-22T16:46:33;22.70;99.90
24103;DHT22;12278;53.058;9.028;2023-06-22T16:50:35;23.00;99.90
24103;DHT22;12278;53.058;9.028;2023-06-22T16:54:36;23.60;99.90
24103;DHT22;12278;53.058;9.028;2023-06-22T16:58:37;24.30;99.90
24103;DHT22;12278;53.058;9.028;2023-06-22T17:02:47;24.40;99.90
24103;DHT22;12278;53.058;9.028;2023-06-22T17:07:09;24.10;99.90
24103;DHT22;12278;53.058;9.028;2023-06-22T17:11:13;23.60;99.90
24103;DHT22;12278;53.058;9.028;2023-06-22T17:15:14;23.40;99.90
24103;DHT22;12278;53.058;9.028;2023-06-22T17:19:15;23.20;99.90
24103;DHT22;12278;53.058;9.028;2023-06-22T17:23:17;23.00;99.90
24103;DHT22;12278;53.058;9.028;2023-06-22T17:27:27;22.70;99.90
24103;DHT22;12278;53.058;9.028;2023-06-22T17:31:40;22.50;99.90
24103;DHT22;12278;53.058;9.028;2023-06-22T17:35:50;22.20;99.90
24103;DHT22;12278;53.058;9.028;2023-06-22T17:39:54;22.10;99.90
24103;DHT22;12278;53.058;9.028;2023-06-22T17:43:57;22.10;99.90
24103;DHT22;12278;53.058;9.028;2023-06-22T17:47:57;21.90;99.90
24103;DHT22;12278;53.058;9.028;2023-06-22T17:52:00;21.80;99.90
24103;DHT22;12278;53.058;9.028;2023-06-22T17:56:01;21.70;99.90
24103;DHT22;12278;53.058;9.028;2023-06-22T18:00:04;21.60;99.90
24103;DHT22;12278;53.058;9.028;2023-06-22T18:04:11;21.60;99.90
24103;DHT22;12278;53.058;9.028;2023-06-22T18:08:23;21.50;99.90
24103;DHT22;12278;53.058;9.028;2023-06-22T18:12:26;21.50;99.90
24103;DHT22;12278;53.058;9.028;2023-06-22T18:16:29;21.50;99.90
24103;DHT22;12278;53.058;9.028;2023-06-22T18:20:31;21.40;99.90
24103;DHT22;12278;53.058;9.028;2023-06-22T18:24:33;21.40;99.90
24103;DHT22;12278;53.058;9.028;2023-06-22T18:28:35;21.40;99.90
24103;DHT22;12278;53.058;9.028;2023-06-22T18:32:38;21.40;99.90
24103;DHT22;12278;53.058;9.028;2023-06-22T18:36:46;21.40;99.90
24103;DHT22;12278;53.058;9.028;2023-06-22T18:40:49;21.40;99.90
24103;DHT22;12278;53.058;9.028;2023-06-22T18:44:54;21.30;99.90
24103;DHT22;12278;53.058;9.028;2023-06-22T18:49:11;21.40;99.90
24103;DHT22;12278;53.058;9.028;2023-06-22T18:53:18;21.40;99.90
24103;DHT22;12278;53.058;9.028;2023-06-22T18:57:26;21.30;99.90
24103;DHT22;12278;53.058;9.028;2023-06-22T19:01:33;21.30;99.90
24103;DHT22;12278;53.058;9.028;2023-06-22T19:05:38;21.20;99.90
24103;DHT22;12278;53.058;9.028;2023-06-22T19:09:39;21.30;99.90
24103;DHT22;12278;53.058;9.028;2023-06-22T19:13:46;21.10;99.90
24103;DHT22;12278;53.058;9.028;2023-06-22T19:17:50;21.10;99.90
24103;DHT22;12278;53.058;9.028;2023-06-22T19:22:00;21.10;99.90
24103;DHT22;12278;53.058;9.028;2023-06-22T19:26:02;21.10;99.90
24103;DHT22;12278;53.058;9.028;2023-06-22T19:30:04;20.90;99.90
24103;DHT22;12278;53.058;9.028;2023-06-22T19:34:04;20.70;99.90
24103;DHT22;12278;53.058;9.028;2023-06-22T19:38:07;20.70;99.90
24103;DHT22;12278;53.058;9.028;2023-06-22T19:42:08;20.70;99.90
24103;DHT22;12278;53.058;9.028;2023-06-22T19:46:09;20.60;99.90
24103;DHT22;12278;53.058;9.028;2023-06-22T19:50:10;20.50;99.90
24103;DHT22;12278;53.058;9.028;2023-06-22T19:54:11;20.50;99.90
24103;DHT22;12278;53.058;9.028;2023-06-22T19:58:23;20.40;99.90
24103;DHT22;12278;53.058;9.028;2023-06-22T20:02:32;20.30;99.90
24103;DHT22;12278;53.058;9.028;2023-06-22T20:06:33;20.20;99.90
24103;DHT22;12278;53.058;9.028;2023-06-22T20:10:37;20.20;99.90
24103;DHT22;12278;53.058;9.028;2023-06-22T20:14:38;20.20;99.90
24103;DHT22;12278;53.058;9.028;2023-06-22T20:18:39;20.00;99.90
24103;DHT22;12278;53.058;9.028;2023-06-22T20:22:43;20.10;99.90
24103;DHT22;12278;53.058;9.028;2023-06-22T20:26:46;20.00;99.90
24103;DHT22;12278;53.058;9.028;2023-06-22T20:31:06;20.00;99.90
24103;DHT22;12278;53.058;9.028;2023-06-22T20:35:10;19.80;99.90
24103;DHT22;12278;53.058;9.028;2023-06-22T20:39:10;19.70;99.90
24103;DHT22;12278;53.058;9.028;2023-06-22T20:43:13;19.70;99.90
24103;DHT22;12278;53.058;9.028;2023-06-22T20:47:14;19.50;99.90
24103;DHT22;12278;53.058;9.028;2023-06-22T20:51:16;19.40;99.90
24103;DHT22;12278;53.058;9.028;2023-06-22T20:55:18;19.30;99.90
24103;DHT22;12278;53.058;9.028;2023-06-22T20:59:19;19.20;99.90
24103;DHT22;12278;53.058;9.028;2023-06-22T21:03:24;19.10;99.90
24103;DHT22;12278;53.058;9.028;2023-06-22T21:07:24;18.90;99.90
24103;DHT22;12278;53.058;9.028;2023-06-22T21:11:25;18.90;99.90
24103;DHT22;12278;53.058;9.028;2023-06-22T21:15:26;18.80;99.90
24103;DHT22;12278;53.058;9.028;2023-06-22T21:19:26;18.70;99.90
24103;DHT22;12278;53.058;9.028;2023-06-22T21:23:28;18.60;99.90
24103;DHT22;12278;53.058;9.028;2023-06-22T21:27:29;18.60;99.90
24103;DHT22;12278;53.058;9.028;2023-06-22T21:31:29;18.50;99.90
24103;DHT22;12278;53.058;9.028;2023-06-22T21:35:30;18.50;99.90
24103;DHT22;12278;53.058;9.028;2023-06-22T21:39:31;18.50;99.90
24103;DHT22;12278;53.058;9.028;2023-06-22T21:43:35;18.40;99.90
24103;DHT22;12278;53.058;9.028;2023-06-22T21:47:36;18.10;99.90
24103;DHT22;12278;53.058;9.028;2023-06-22T21:51:37;18.20;99.90
24103;DHT22;12278;53.058;9.028;2023-06-22T21:55:38;18.00;99.90
24103;DHT22;12278;53.058;9.028;2023-06-22T21:59:38;17.80;99.90
24103;DHT22;12278;53.058;9.028;2023-06-22T22:03:39;17.60;99.90
24103;DHT22;12278;53.058;9.028;2023-06-22T22:07:43;17.60;99.90
24103;DHT22;12278;53.058;9.028;2023-06-22T22:11:43;17.50;99.90
24103;DHT22;12278;53.058;9.028;2023-06-22T22:15:44;17.40;99.90
24103;DHT22;12278;53.058;9.028;2023-06-22T22:19:45;17.20;99.90
24103;DHT22;12278;53.058;9.028;2023-06-22T22:23:45;17.10;99.90
24103;DHT22;12278;53.058;9.028;2023-06-22T22:27:46;17.10;99.90
24103;DHT22;12278;53.058;9.028;2023-06-22T22:31:47;17.10;99.90
24103;DHT22;12278;53.058;9.028;2023-06-22T22:35:49;17.00;99.90
24103;DHT22;12278;53.058;9.028;2023-06-22T22:39:50;17.00;99.90
24103;DHT22;12278;53.058;9.028;2023-06-22T22:43:51;17.00;99.90
24103;DHT22;12278;53.058;9.028;2023-06-22T22:47:51;17.00;99.90
24103;DHT22;12278;53.058;9.028;2023-06-22T22:51:52;17.10;99.90
24103;DHT22;12278;53.058;9.028;2023-06-22T22:55:53;17.10;99.90
24103;DHT22;12278;53.058;9.028;2023-06-22T22:59:54;17.10;99.90
24103;DHT22;12278;53.058;9.028;2023-06-22T23:03:55;17.20;99.90
24103;DHT22;12278;53.058;9.028;2023-06-22T23:07:56;17.20;99.90
24103;DHT22;12278;53.058;9.028;2023-06-22T23:11:56;17.30;99.90
24103;DHT22;12278;53.058;9.028;2023-06-22T23:15:57;17.10;99.90
24103;DHT22;12278;53.058;9.028;2023-06-22T23:19:59;17.10;99.90
24103;DHT22;12278;53.058;9.028;2023-06-22T23:24:08;17.10;99.90
24103;DHT22;12278;53.058;9.028;2023-06-22T23:28:09;17.00;99.90
24103;DHT22;12278;53.058;9.028;2023-06-22T23:32:09;17.00;99.90
24103;DHT22;12278;53.058;9.028;2023-06-22T23:36:10;17.00;99.90
24103;DHT22;12278;53.058;9.028;2023-06-22T23:40:26;17.00;99.90
24103;DHT22;12278;53.058;9.028;2023-06-22T23:44:27;16.80;99.90
24103;DHT22;12278;53.058;9.028;2023-06-22T23:48:28;16.90;99.90
24103;DHT22;12278;53.058;9.028;2023-06-22T23:52:29;16.90;99.90
24103;DHT22;12278;53.058;9.028;2023-06-22T23:56:29;16.80;99.90
